Time,TemperatureF,DewpointF,PressureIn,WindDirection,WindDirectionDegrees,WindSpeedMPH,WindSpeedGustMPH,Humidity,HourlyPrecipIn,Conditions,Clouds,dailyrainin,SoftwareType,DateUTC
2013-01-05 00:01:00,25.1,21.5,30.35,NNE,22,11.0,19.0,86,0.00,,,0.00,Wunderground v.1.15,2013-01-05 05:01:00,
2013-01-05 00:06:00,25.1,21.5,30.35,NW,308,11.0,19.0,86,0.00,,,0.00,Wunderground v.1.15,2013-01-05 05:06:00,
2013-01-05 00:10:00,25.2,21.6,30.35,NW,307,12.0,12.0,86,0.00,,,0.00,Wunderground v.1.15,2013-01-05 05:10:00,
2013-01-05 00:15:00,25.1,21.5,30.35,NW,319,11.0,12.0,86,0.00,,,0.00,Wunderground v.1.15,2013-01-05 05:15:00,
2013-01-05 00:25:00,25.0,21.4,30.35,NW,312,11.0,12.0,86,0.00,,,0.00,Wunderground v.1.15,2013-01-05 05:25:00,
2013-01-05 00:30:00,25.0,21.4,30.35,NW,313,11.0,13.0,86,0.00,,,0.00,Wunderground v.1.15,2013-01-05 05:30:00,
2013-01-05 00:35:00,24.8,21.2,30.35,NW,307,12.0,14.0,86,0.00,,,0.00,Wunderground v.1.15,2013-01-05 05:35:00,
2013-01-05 00:40:00,24.9,21.3,30.35,NW,306,13.0,13.0,86,0.00,,,0.00,Wunderground v.1.15,2013-01-05 05:40:00,
2013-01-05 00:45:00,24.8,21.2,30.35,SE,140,13.0,13.0,86,0.00,,,0.00,Wunderground v.1.15,2013-01-05 05:45:00,
2013-01-05 00:51:00,24.8,21.2,30.36,NW,326,12.0,15.0,86,0.00,,,0.00,Wunderground v.1.15,2013-01-05 05:51:00,
2013-01-05 01:01:00,24.7,21.4,30.36,NW,315,12.0,14.0,87,0.00,,,0.00,Wunderground v.1.15,2013-01-05 06:01:00,
2013-01-05 01:06:00,24.6,21.3,30.36,NW,304,12.0,18.0,87,0.00,,,0.00,Wunderground v.1.15,2013-01-05 06:06:00,
2013-01-05 01:15:00,24.5,21.2,30.35,West,259,11.0,18.0,87,0.00,,,0.00,Wunderground v.1.15,2013-01-05 06:15:00,
2013-01-05 01:20:00,24.6,21.3,30.35,NNW,335,10.0,18.0,87,0.00,,,0.00,Wunderground v.1.15,2013-01-05 06:20:00,
2013-01-05 01:25:00,24.4,21.1,30.35,NW,311,10.0,18.0,87,0.00,,,0.00,Wunderground v.1.15,2013-01-05 06:25:00,
2013-01-05 01:35:00,24.3,21.0,30.35,NW,316,9.0,18.0,87,0.00,,,0.00,Wunderground v.1.15,2013-01-05 06:35:00,
2013-01-05 01:40:00,24.3,21.0,30.35,NW,308,9.0,9.0,87,0.00,,,0.00,Wunderground v.1.15,2013-01-05 06:40:00,
2013-01-05 01:45:00,24.1,20.8,30.36,NW,314,9.0,18.0,87,0.00,,,0.00,Wunderground v.1.15,2013-01-05 06:45:00,
2013-01-05 01:51:00,24.1,20.8,30.35,WNW,302,9.0,9.0,87,0.00,,,0.00,Wunderground v.1.15,2013-01-05 06:51:00,
2013-01-05 01:56:00,24.1,20.8,30.35,NW,321,9.0,18.0,87,0.00,,,0.00,Wunderground v.1.15,2013-01-05 06:56:00,
2013-01-05 02:06:00,23.7,20.4,30.35,NW,312,6.0,18.0,87,0.00,,,0.00,Wunderground v.1.15,2013-01-05 07:06:00,
2013-01-05 02:11:00,23.5,20.5,30.35,WNW,294,5.0,5.0,88,0.00,,,0.00,Wunderground v.1.15,2013-01-05 07:11:00,
2013-01-05 02:20:00,23.0,20.2,30.35,West,270,4.0,18.0,89,0.00,,,0.00,Wunderground v.1.15,2013-01-05 07:20:00,
2013-01-05 02:25:00,22.8,20.0,30.35,West,271,4.0,18.0,89,0.00,,,0.00,Wunderground v.1.15,2013-01-05 07:25:00,
2013-01-05 02:30:00,22.5,19.7,30.35,WNW,297,5.0,5.0,89,0.00,,,0.00,Wunderground v.1.15,2013-01-05 07:30:00,
2013-01-05 02:40:00,21.9,19.2,30.35,West,268,4.0,18.0,89,0.00,,,0.00,Wunderground v.1.15,2013-01-05 07:40:00,
2013-01-05 02:45:00,21.6,18.9,30.36,WNW,293,5.0,18.0,89,0.00,,,0.00,Wunderground v.1.15,2013-01-05 07:45:00,
2013-01-05 02:50:00,21.6,19.1,30.36,WNW,287,5.0,5.0,90,0.00,,,0.00,Wunderground v.1.15,2013-01-05 07:50:00,
2013-01-05 02:56:00,21.3,18.8,30.36,WNW,289,5.0,18.0,90,0.00,,,0.00,Wunderground v.1.15,2013-01-05 07:56:00,
2013-01-05 03:01:00,21.3,18.8,30.36,WNW,298,5.0,5.0,90,0.00,,,0.00,Wunderground v.1.15,2013-01-05 08:01:00,
2013-01-05 03:11:00,21.5,19.0,30.37,WNW,291,6.0,9.0,90,0.00,,,0.00,Wunderground v.1.15,2013-01-05 08:11:00,
2013-01-05 03:20:00,21.8,19.3,30.37,WNW,302,8.0,8.0,90,0.00,,,0.00,Wunderground v.1.15,2013-01-05 08:20:00,
2013-01-05 03:25:00,21.9,19.4,30.38,WNW,283,9.0,9.0,90,0.00,,,0.00,Wunderground v.1.15,2013-01-05 08:25:00,
2013-01-05 03:30:00,22.1,19.6,30.38,WNW,293,9.0,9.0,90,0.00,,,0.00,Wunderground v.1.15,2013-01-05 08:30:00,
2013-01-05 03:35:00,22.3,19.8,30.38,WNW,288,9.0,9.0,90,0.00,,,0.00,Wunderground v.1.15,2013-01-05 08:35:00,
2013-01-05 03:40:00,22.4,19.6,30.37,NW,307,9.0,12.0,89,0.00,,,0.00,Wunderground v.1.15,2013-01-05 08:40:00,
2013-01-05 03:50:00,22.4,19.6,30.38,NW,307,9.0,10.0,89,0.00,,,0.00,Wunderground v.1.15,2013-01-05 08:50:00,
2013-01-05 03:56:00,22.5,19.7,30.37,NW,318,9.0,10.0,89,0.00,,,0.00,Wunderground v.1.15,2013-01-05 08:56:00,
2013-01-05 04:01:00,22.4,19.6,30.37,NW,304,8.0,8.0,89,0.00,,,0.00,Wunderground v.1.15,2013-01-05 09:01:00,
2013-01-05 04:06:00,22.3,19.6,30.37,NW,315,8.0,9.0,89,0.00,,,0.00,Wunderground v.1.15,2013-01-05 09:06:00,
2013-01-05 04:15:00,22.1,19.4,30.37,West,281,9.0,9.0,89,0.00,,,0.00,Wunderground v.1.15,2013-01-05 09:15:00,
2013-01-05 04:25:00,22.0,19.3,30.37,WNW,300,8.0,9.0,89,0.00,,,0.00,Wunderground v.1.15,2013-01-05 09:25:00,
2013-01-05 04:30:00,21.9,19.2,30.37,NNW,327,8.0,8.0,89,0.00,,,0.00,Wunderground v.1.15,2013-01-05 09:30:00,
2013-01-05 04:35:00,21.9,19.2,30.38,NW,315,8.0,10.0,89,0.00,,,0.00,Wunderground v.1.15,2013-01-05 09:35:00,
2013-01-05 04:40:00,21.9,19.2,30.37,NW,307,8.0,9.0,89,0.00,,,0.00,Wunderground v.1.15,2013-01-05 09:40:00,
2013-01-05 04:45:00,21.9,19.2,30.37,WNW,294,8.0,9.0,89,0.00,,,0.00,Wunderground v.1.15,2013-01-05 09:45:00,
2013-01-05 04:55:00,21.7,19.0,30.37,WNW,295,6.0,8.0,89,0.00,,,0.00,Wunderground v.1.15,2013-01-05 09:55:00,
2013-01-05 05:01:00,21.6,18.9,30.36,WNW,297,4.0,8.0,89,0.00,,,0.00,Wunderground v.1.15,2013-01-05 10:01:00,
2013-01-05 05:06:00,21.5,18.8,30.36,NW,314,4.0,8.0,89,0.00,,,0.00,Wunderground v.1.15,2013-01-05 10:06:00,
2013-01-05 05:11:00,21.4,18.7,30.36,WNW,294,3.0,8.0,89,0.00,,,0.00,Wunderground v.1.15,2013-01-05 10:11:00,
2013-01-05 05:20:00,21.4,18.9,30.36,WNW,293,4.0,8.0,90,0.00,,,0.00,Wunderground v.1.15,2013-01-05 10:20:00,
2013-01-05 05:30:00,21.3,18.8,30.36,NW,311,4.0,8.0,90,0.00,,,0.00,Wunderground v.1.15,2013-01-05 10:30:00,
2013-01-05 05:35:00,21.3,18.8,30.36,WNW,298,4.0,8.0,90,0.00,,,0.00,Wunderground v.1.15,2013-01-05 10:35:00,
2013-01-05 05:40:00,21.2,18.7,30.36,NW,315,4.0,8.0,90,0.00,,,0.00,Wunderground v.1.15,2013-01-05 10:40:00,
2013-01-05 05:46:00,21.2,18.7,30.36,WNW,293,4.0,8.0,90,0.00,,,0.00,Wunderground v.1.15,2013-01-05 10:46:00,
2013-01-05 05:51:00,21.1,18.6,30.36,West,279,3.0,8.0,90,0.00,,,0.00,Wunderground v.1.15,2013-01-05 10:51:00,
2013-01-05 05:56:00,20.9,18.4,30.36,WNW,288,3.0,8.0,90,0.00,,,0.00,Wunderground v.1.15,2013-01-05 10:56:00,
2013-01-05 06:06:00,20.7,18.2,30.36,WNW,291,5.0,8.0,90,0.00,,,0.00,Wunderground v.1.15,2013-01-05 11:06:00,
2013-01-05 06:11:00,20.8,18.3,30.36,WNW,293,6.0,8.0,90,0.00,,,0.00,Wunderground v.1.15,2013-01-05 11:11:00,
2013-01-05 06:20:00,20.8,18.3,30.36,WNW,291,6.0,6.0,90,0.00,,,0.00,Wunderground v.1.15,2013-01-05 11:20:00,
2013-01-05 06:25:00,20.9,18.4,30.36,WNW,298,5.0,8.0,90,0.00,,,0.00,Wunderground v.1.15,2013-01-05 11:25:00,
2013-01-05 06:30:00,20.9,18.4,30.36,WNW,300,4.0,8.0,90,0.00,,,0.00,Wunderground v.1.15,2013-01-05 11:30:00,
2013-01-05 06:40:00,20.8,18.3,30.36,WNW,283,4.0,4.0,90,0.00,,,0.00,Wunderground v.1.15,2013-01-05 11:40:00,
2013-01-05 06:46:00,21.1,18.9,30.35,West,280,4.0,6.0,91,0.00,,,0.00,Wunderground v.1.15,2013-01-05 11:46:00,
2013-01-05 06:51:00,21.3,18.8,30.36,West,277,4.0,8.0,90,0.00,,,0.00,Wunderground v.1.15,2013-01-05 11:51:00,
2013-01-05 06:56:00,21.1,18.6,30.36,WNW,285,5.0,8.0,90,0.00,,,0.00,Wunderground v.1.15,2013-01-05 11:56:00,
2013-01-05 07:05:00,21.5,19.3,30.35,West,269,6.0,7.0,91,0.00,,,0.00,Wunderground v.1.15,2013-01-05 12:05:00,
2013-01-05 07:15:00,21.7,19.0,30.35,West,264,5.0,6.0,89,0.00,,,0.00,Wunderground v.1.15,2013-01-05 12:15:00,
2013-01-05 07:20:00,21.9,19.2,30.35,WNW,285,5.0,5.0,89,0.00,,,0.00,Wunderground v.1.15,2013-01-05 12:20:00,
2013-01-05 07:25:00,21.9,19.2,30.35,West,270,5.0,5.0,89,0.00,,,0.00,Wunderground v.1.15,2013-01-05 12:25:00,
2013-01-05 07:30:00,22.1,19.4,30.35,West,279,5.0,8.0,89,0.00,,,0.00,Wunderground v.1.15,2013-01-05 12:30:00,
2013-01-05 07:36:00,22.2,19.5,30.35,WNW,285,6.0,9.0,89,0.00,,,0.00,Wunderground v.1.15,2013-01-05 12:36:00,
2013-01-05 07:46:00,22.3,19.3,30.35,West,274,6.0,7.0,88,0.00,,,0.00,Wunderground v.1.15,2013-01-05 12:46:00,
2013-01-05 07:51:00,22.2,19.2,30.35,West,276,5.0,7.0,88,0.00,,,0.00,Wunderground v.1.15,2013-01-05 12:51:00,
2013-01-05 07:56:00,21.9,18.9,30.35,West,276,6.0,8.0,88,0.00,,,0.00,Wunderground v.1.15,2013-01-05 12:56:00,
2013-01-05 08:01:00,21.8,19.1,30.35,NW,309,7.0,9.0,89,0.00,,,0.00,Wunderground v.1.15,2013-01-05 13:01:00,
2013-01-05 08:10:00,21.9,19.2,30.35,WSW,248,6.0,8.0,89,0.00,,,0.00,Wunderground v.1.15,2013-01-05 13:10:00,
2013-01-05 08:20:00,22.0,19.3,30.34,WSW,256,6.0,8.0,89,0.00,,,0.00,Wunderground v.1.15,2013-01-05 13:20:00,
2013-01-05 08:25:00,21.8,19.1,30.34,WSW,250,6.0,8.0,89,0.00,,,0.00,Wunderground v.1.15,2013-01-05 13:25:00,
2013-01-05 08:30:00,21.9,19.2,30.35,WSW,252,6.0,8.0,89,0.00,,,0.00,Wunderground v.1.15,2013-01-05 13:30:00,
2013-01-05 08:35:00,21.9,19.2,30.35,WNW,282,6.0,10.0,89,0.00,,,0.00,Wunderground v.1.15,2013-01-05 13:35:00,
2013-01-05 08:41:00,22.1,19.4,30.35,WNW,290,8.0,9.0,89,0.00,,,0.00,Wunderground v.1.15,2013-01-05 13:41:00,
2013-01-05 08:46:00,22.0,19.3,30.35,West,274,8.0,9.0,89,0.00,,,0.00,Wunderground v.1.15,2013-01-05 13:46:00,
2013-01-05 08:56:00,22.0,19.3,30.35,West,276,8.0,10.0,89,0.00,,,0.00,Wunderground v.1.15,2013-01-05 13:56:00,
2013-01-05 09:01:00,22.1,19.4,30.35,WNW,285,8.0,8.0,89,0.00,,,0.00,Wunderground v.1.15,2013-01-05 14:01:00,
2013-01-05 09:06:00,22.3,19.6,30.36,West,266,9.0,13.0,89,0.00,,,0.00,Wunderground v.1.15,2013-01-05 14:06:00,
2013-01-05 09:15:00,22.1,19.4,30.36,West,276,11.0,12.0,89,0.00,,,0.00,Wunderground v.1.15,2013-01-05 14:15:00,
2013-01-05 09:20:00,22.2,19.5,30.36,West,274,10.0,11.0,89,0.00,,,0.00,Wunderground v.1.15,2013-01-05 14:20:00,
2013-01-05 09:30:00,22.9,19.9,30.36,West,273,9.0,9.0,88,0.00,,,0.00,Wunderground v.1.15,2013-01-05 14:30:00,
2013-01-05 09:35:00,23.4,20.4,30.36,WNW,283,8.0,9.0,88,0.00,,,0.00,Wunderground v.1.15,2013-01-05 14:35:00,
2013-01-05 09:40:00,23.9,20.6,30.36,WNW,301,8.0,8.0,87,0.00,,,0.00,Wunderground v.1.15,2013-01-05 14:40:00,
2013-01-05 09:46:00,24.2,20.9,30.36,WNW,283,8.0,10.0,87,0.00,,,0.00,Wunderground v.1.15,2013-01-05 14:46:00,
2013-01-05 09:51:00,24.8,21.2,30.36,WNW,283,7.0,7.0,86,0.00,,,0.00,Wunderground v.1.15,2013-01-05 14:51:00,
2013-01-05 09:56:00,25.1,21.2,30.36,West,276,7.0,8.0,85,0.00,,,0.00,Wunderground v.1.15,2013-01-05 14:56:00,
2013-01-05 10:01:00,25.4,21.5,30.35,WNW,295,7.0,7.0,85,0.00,,,0.00,Wunderground v.1.15,2013-01-05 15:01:00,
2013-01-05 10:10:00,25.9,21.7,30.35,WNW,285,7.0,7.0,84,0.00,,,0.00,Wunderground v.1.15,2013-01-05 15:10:00,
2013-01-05 10:15:00,26.2,21.7,30.35,WNW,294,6.0,7.0,83,0.00,,,0.00,Wunderground v.1.15,2013-01-05 15:15:00,
2013-01-05 10:20:00,26.4,21.9,30.35,WNW,295,5.0,5.0,83,0.00,,,0.00,Wunderground v.1.15,2013-01-05 15:20:00,
2013-01-05 10:25:00,26.6,21.8,30.35,WNW,290,5.0,8.0,82,0.00,,,0.00,Wunderground v.1.15,2013-01-05 15:25:00,
2013-01-05 10:30:00,26.7,21.9,30.35,WNW,288,6.0,8.0,82,0.00,,,0.00,Wunderground v.1.15,2013-01-05 15:30:00,
2013-01-05 10:35:00,27.0,22.2,30.35,West,266,7.0,8.0,82,0.00,,,0.00,Wunderground v.1.15,2013-01-05 15:35:00,
2013-01-05 10:40:00,27.5,22.4,30.35,WSW,252,6.0,6.0,81,0.00,,,0.00,Wunderground v.1.15,2013-01-05 15:40:00,
2013-01-05 10:46:00,27.7,22.3,30.34,West,264,5.0,6.0,80,0.00,,,0.00,Wunderground v.1.15,2013-01-05 15:46:00,
2013-01-05 10:51:00,27.4,22.0,30.34,WSW,252,6.0,7.0,80,0.00,,,0.00,Wunderground v.1.15,2013-01-05 15:51:00,
2013-01-05 10:56:00,27.2,22.1,30.33,WSW,248,6.0,7.0,81,0.00,,,0.00,Wunderground v.1.15,2013-01-05 15:56:00,
2013-01-05 11:01:00,27.5,22.4,30.33,WSW,255,6.0,6.0,81,0.00,,,0.00,Wunderground v.1.15,2013-01-05 16:01:00,
2013-01-05 11:10:00,27.8,22.4,30.33,WSW,250,6.0,13.0,80,0.00,,,0.00,Wunderground v.1.15,2013-01-05 16:10:00,
2013-01-05 11:15:00,28.2,22.8,30.33,West,268,6.0,13.0,80,0.00,,,0.00,Wunderground v.1.15,2013-01-05 16:15:00,
2013-01-05 11:20:00,28.2,22.5,30.33,West,280,5.0,13.0,79,0.00,,,0.00,Wunderground v.1.15,2013-01-05 16:20:00,
2013-01-05 11:25:00,28.2,22.5,30.33,WNW,288,5.0,13.0,79,0.00,,,0.00,Wunderground v.1.15,2013-01-05 16:25:00,
2013-01-05 11:36:00,29.0,23.0,30.33,West,274,6.0,13.0,78,0.00,,,0.00,Wunderground v.1.15,2013-01-05 16:36:00,
2013-01-05 11:46:00,29.4,23.4,30.32,WSW,254,6.0,13.0,78,0.00,,,0.00,Wunderground v.1.15,2013-01-05 16:46:00,
2013-01-05 11:51:00,29.5,23.2,30.32,NW,304,6.0,6.0,77,0.00,,,0.00,Wunderground v.1.15,2013-01-05 16:51:00,
2013-01-05 11:56:00,29.5,23.2,30.32,West,272,6.0,13.0,77,0.00,,,0.00,Wunderground v.1.15,2013-01-05 16:56:00,
2013-01-05 12:01:00,29.4,23.4,30.32,WNW,295,6.0,6.0,78,0.00,,,0.00,Wunderground v.1.15,2013-01-05 17:01:00,
2013-01-05 12:10:00,30.2,23.5,30.30,West,270,6.0,6.0,76,0.00,,,0.00,Wunderground v.1.15,2013-01-05 17:10:00,
2013-01-05 12:20:00,30.6,23.9,30.30,WSW,250,6.0,7.0,76,0.00,,,0.00,Wunderground v.1.15,2013-01-05 17:20:00,
2013-01-05 12:25:00,30.4,23.7,30.29,West,261,7.0,7.0,76,0.00,,,0.00,Wunderground v.1.15,2013-01-05 17:25:00,
2013-01-05 12:30:00,30.3,24.0,30.29,West,274,7.0,7.0,77,0.00,,,0.00,Wunderground v.1.15,2013-01-05 17:30:00,
2013-01-05 12:36:00,30.2,23.9,30.29,West,268,7.0,8.0,77,0.00,,,0.00,Wunderground v.1.15,2013-01-05 17:36:00,
2013-01-05 12:41:00,30.4,24.1,30.29,WNW,293,7.0,7.0,77,0.00,,,0.00,Wunderground v.1.15,2013-01-05 17:41:00,
2013-01-05 12:51:00,30.9,24.8,30.28,WNW,283,9.0,9.0,78,0.00,,,0.00,Wunderground v.1.15,2013-01-05 17:51:00,
2013-01-05 12:56:00,30.9,24.5,30.28,WNW,285,10.0,10.0,77,0.00,,,0.00,Wunderground v.1.15,2013-01-05 17:56:00,
2013-01-05 13:01:00,31.0,24.9,30.28,West,277,9.0,9.0,78,0.00,,,0.00,Wunderground v.1.15,2013-01-05 18:01:00,
2013-01-05 13:10:00,31.2,25.1,30.27,NW,310,7.0,10.0,78,0.00,,,0.00,Wunderground v.1.15,2013-01-05 18:10:00,
2013-01-05 13:15:00,31.2,24.8,30.26,West,276,9.0,10.0,77,0.00,,,0.00,Wunderground v.1.15,2013-01-05 18:15:00,
2013-01-05 13:25:00,31.3,24.9,30.25,NW,304,8.0,10.0,77,0.00,,,0.00,Wunderground v.1.15,2013-01-05 18:25:00,
2013-01-05 13:30:00,31.3,24.9,30.25,WNW,283,8.0,8.0,77,0.00,,,0.00,Wunderground v.1.15,2013-01-05 18:30:00,
2013-01-05 13:35:00,31.3,24.9,30.25,West,270,8.0,10.0,77,0.00,,,0.00,Wunderground v.1.15,2013-01-05 18:35:00,
2013-01-05 13:41:00,31.4,25.0,30.25,West,263,8.0,10.0,77,0.00,,,0.00,Wunderground v.1.15,2013-01-05 18:41:00,
2013-01-05 13:46:00,31.4,25.0,30.24,West,274,8.0,12.0,77,0.00,,,0.00,Wunderground v.1.15,2013-01-05 18:46:00,
2013-01-05 13:51:00,31.4,25.0,30.24,WNW,282,9.0,10.0,77,0.00,,,0.00,Wunderground v.1.15,2013-01-05 18:51:00,
2013-01-05 14:01:00,31.5,25.4,30.23,West,271,7.0,7.0,78,0.00,,,0.00,Wunderground v.1.15,2013-01-05 19:01:00,
2013-01-05 14:10:00,31.8,25.7,30.23,WNW,285,8.0,11.0,78,0.00,,,0.00,Wunderground v.1.15,2013-01-05 19:10:00,
2013-01-05 14:15:00,32.0,25.6,30.23,WNW,302,9.0,11.0,77,0.00,,,0.00,Wunderground v.1.15,2013-01-05 19:15:00,
2013-01-05 14:20:00,32.3,26.2,30.23,West,280,9.0,10.0,78,0.00,,,0.00,Wunderground v.1.15,2013-01-05 19:20:00,
2013-01-05 14:25:00,32.7,26.3,30.23,West,274,8.0,10.0,77,0.00,,,0.00,Wunderground v.1.15,2013-01-05 19:25:00,
2013-01-05 14:35:00,33.1,26.4,30.23,WNW,293,10.0,12.0,76,0.00,,,0.00,Wunderground v.1.15,2013-01-05 19:35:00,
2013-01-05 14:41:00,33.2,26.5,30.22,WNW,295,8.0,9.0,76,0.00,,,0.00,Wunderground v.1.15,2013-01-05 19:41:00,
2013-01-05 14:46:00,33.3,26.5,30.23,West,280,8.0,9.0,76,0.00,,,0.00,Wunderground v.1.15,2013-01-05 19:46:00,
2013-01-05 14:51:00,33.3,26.5,30.21,West,260,7.0,8.0,76,0.00,,,0.00,Wunderground v.1.15,2013-01-05 19:51:00,
2013-01-05 14:56:00,33.3,26.5,30.21,West,274,7.0,8.0,76,0.00,,,0.00,Wunderground v.1.15,2013-01-05 19:56:00,
2013-01-05 15:06:00,33.3,26.9,30.21,WNW,295,7.0,9.0,77,0.00,,,0.00,Wunderground v.1.15,2013-01-05 20:06:00,
2013-01-05 15:15:00,33.4,26.6,30.21,West,273,8.0,16.0,76,0.00,,,0.00,Wunderground v.1.15,2013-01-05 20:15:00,
2013-01-05 15:20:00,33.5,26.7,30.21,WNW,295,9.0,16.0,76,0.00,,,0.00,Wunderground v.1.15,2013-01-05 20:20:00,
2013-01-05 15:25:00,33.5,26.7,30.21,WNW,295,10.0,16.0,76,0.00,,,0.00,Wunderground v.1.15,2013-01-05 20:25:00,
2013-01-05 15:30:00,33.6,26.8,30.20,NW,311,10.0,16.0,76,0.00,,,0.00,Wunderground v.1.15,2013-01-05 20:30:00,
2013-01-05 15:40:00,33.9,27.1,30.20,West,280,9.0,9.0,76,0.00,,,0.00,Wunderground v.1.15,2013-01-05 20:40:00,
2013-01-05 15:46:00,34.0,27.2,30.20,WNW,291,9.0,16.0,76,0.00,,,0.00,Wunderground v.1.15,2013-01-05 20:46:00,
2013-01-05 15:51:00,34.1,27.3,30.20,WNW,293,9.0,16.0,76,0.00,,,0.00,Wunderground v.1.15,2013-01-05 20:51:00,
2013-01-05 15:56:00,34.0,27.2,30.20,NW,316,10.0,20.0,76,0.00,,,0.00,Wunderground v.1.15,2013-01-05 20:56:00,
2013-01-05 16:01:00,34.0,27.2,30.21,WNW,294,12.0,12.0,76,0.00,,,0.00,Wunderground v.1.15,2013-01-05 21:01:00,
2013-01-05 16:10:00,33.8,27.4,30.23,NW,319,12.0,16.0,77,0.00,,,0.00,Wunderground v.1.15,2013-01-05 21:10:00,
2013-01-05 16:16:00,33.7,27.3,30.21,NW,308,13.0,16.0,77,0.00,,,0.00,Wunderground v.1.15,2013-01-05 21:16:00,
2013-01-05 16:21:00,33.7,27.3,30.22,NNW,341,14.0,14.0,77,0.00,,,0.00,Wunderground v.1.15,2013-01-05 21:21:00,
2013-01-05 16:26:00,33.6,27.2,30.22,WNW,288,15.0,15.0,77,0.00,,,0.00,Wunderground v.1.15,2013-01-05 21:26:00,
2013-01-05 16:31:00,33.4,27.6,30.22,NW,321,14.0,16.0,79,0.00,,,0.00,Wunderground v.1.15,2013-01-05 21:31:00,
2013-01-05 16:40:00,33.2,27.7,30.21,NW,313,13.0,14.0,80,0.00,,,0.00,Wunderground v.1.15,2013-01-05 21:40:00,
2013-01-05 16:50:00,33.0,28.1,30.20,NW,324,14.0,14.0,82,0.00,,,0.00,Wunderground v.1.15,2013-01-05 21:50:00,
2013-01-05 16:55:00,32.9,28.3,30.20,NNW,330,13.0,14.0,83,0.00,,,0.00,Wunderground v.1.15,2013-01-05 21:55:00,
2013-01-05 17:00:00,32.8,28.2,30.20,NW,308,13.0,13.0,83,0.00,,,0.00,Wunderground v.1.15,2013-01-05 22:00:00,
2013-01-05 17:05:00,32.8,28.5,30.21,WNW,290,13.0,21.0,84,0.00,,,0.00,Wunderground v.1.15,2013-01-05 22:05:00,
2013-01-05 17:11:00,32.7,28.7,30.20,NW,313,12.0,21.0,85,0.00,,,0.00,Wunderground v.1.15,2013-01-05 22:11:00,
2013-01-05 17:16:00,32.7,28.7,30.20,NW,326,11.0,21.0,85,0.00,,,0.00,Wunderground v.1.15,2013-01-05 22:16:00,
2013-01-05 17:26:00,32.5,28.8,30.20,NW,308,10.0,14.0,86,0.00,,,0.00,Wunderground v.1.15,2013-01-05 22:26:00,
2013-01-05 17:31:00,32.4,28.7,30.21,West,278,11.0,11.0,86,0.00,,,0.00,Wunderground v.1.15,2013-01-05 22:31:00,
2013-01-05 17:36:00,32.3,28.9,30.21,West,278,10.0,21.0,87,0.00,,,0.00,Wunderground v.1.15,2013-01-05 22:36:00,
2013-01-05 17:45:00,32.1,28.9,30.21,NW,304,9.0,21.0,88,0.00,,,0.00,Wunderground v.1.15,2013-01-05 22:45:00,
2013-01-05 17:50:00,32.0,29.1,30.21,West,264,9.0,9.0,89,0.00,,,0.00,Wunderground v.1.15,2013-01-05 22:50:00,
2013-01-05 18:01:00,31.7,29.4,30.20,WNW,283,8.0,8.0,91,0.00,,,0.00,Wunderground v.1.15,2013-01-05 23:01:00,
2013-01-05 18:11:00,31.5,29.2,30.20,WNW,291,7.0,9.0,91,0.00,,,0.00,Wunderground v.1.15,2013-01-05 23:11:00,
2013-01-05 18:16:00,31.5,29.4,30.19,NW,304,7.0,10.0,92,0.00,,,0.00,Wunderground v.1.15,2013-01-05 23:16:00,
2013-01-05 18:21:00,31.5,29.4,30.19,WNW,283,8.0,9.0,92,0.00,,,0.00,Wunderground v.1.15,2013-01-05 23:21:00,
2013-01-05 18:26:00,31.5,29.4,30.19,WNW,290,8.0,9.0,92,0.00,,,0.00,Wunderground v.1.15,2013-01-05 23:26:00,
2013-01-05 18:31:00,31.5,29.4,30.20,NW,304,8.0,11.0,92,0.00,,,0.00,Wunderground v.1.15,2013-01-05 23:31:00,
2013-01-05 18:36:00,31.5,29.4,30.20,WNW,301,9.0,11.0,92,0.00,,,0.00,Wunderground v.1.15,2013-01-05 23:36:00,
2013-01-05 18:45:00,31.5,29.7,30.19,West,278,8.0,10.0,93,0.00,,,0.00,Wunderground v.1.15,2013-01-05 23:45:00,
2013-01-05 18:50:00,31.5,29.7,30.19,WNW,293,8.0,8.0,93,0.00,,,0.00,Wunderground v.1.15,2013-01-05 23:50:00,
2013-01-05 18:55:00,31.5,29.7,30.19,West,276,7.0,8.0,93,0.00,,,0.00,Wunderground v.1.15,2013-01-05 23:55:00,
2013-01-05 19:05:00,31.6,29.8,30.19,West,267,7.0,15.0,93,0.00,,,0.00,Wunderground v.1.15,2013-01-06 00:05:00,
2013-01-05 19:10:00,31.6,29.8,30.19,West,270,7.0,15.0,93,0.00,,,0.00,Wunderground v.1.15,2013-01-06 00:10:00,
2013-01-05 19:16:00,31.6,29.8,30.19,West,281,8.0,15.0,93,0.00,,,0.00,Wunderground v.1.15,2013-01-06 00:16:00,
2013-01-05 19:21:00,31.6,29.8,30.18,West,280,9.0,15.0,93,0.00,,,0.00,Wunderground v.1.15,2013-01-06 00:21:00,
2013-01-05 19:26:00,31.6,29.8,30.18,West,270,9.0,15.0,93,0.00,,,0.00,Wunderground v.1.15,2013-01-06 00:26:00,
2013-01-05 19:31:00,31.6,29.8,30.19,WNW,291,10.0,10.0,93,0.00,,,0.00,Wunderground v.1.15,2013-01-06 00:31:00,
2013-01-05 19:36:00,31.5,29.4,30.19,West,278,11.0,11.0,92,0.00,,,0.00,Wunderground v.1.15,2013-01-06 00:36:00,
2013-01-05 19:41:00,31.5,29.4,30.19,West,267,10.0,10.0,92,0.00,,,0.00,Wunderground v.1.15,2013-01-06 00:41:00,
2013-01-05 19:50:00,31.6,29.5,30.19,WNW,287,9.0,15.0,92,0.00,,,0.00,Wunderground v.1.15,2013-01-06 00:50:00,
2013-01-05 19:55:00,31.6,29.5,30.19,West,276,9.0,15.0,92,0.00,,,0.00,Wunderground v.1.15,2013-01-06 00:55:00,
2013-01-05 20:01:00,31.7,29.4,30.19,WNW,293,9.0,9.0,91,0.00,,,0.00,Wunderground v.1.15,2013-01-06 01:01:00,
2013-01-05 20:10:00,31.7,29.4,30.18,West,265,9.0,9.0,91,0.00,,,0.00,Wunderground v.1.15,2013-01-06 01:10:00,
2013-01-05 20:16:00,31.8,29.2,30.18,WNW,295,10.0,11.0,90,0.00,,,0.00,Wunderground v.1.15,2013-01-06 01:16:00,
2013-01-05 20:21:00,31.9,29.3,30.19,WNW,293,11.0,11.0,90,0.00,,,0.00,Wunderground v.1.15,2013-01-06 01:21:00,
2013-01-05 20:26:00,32.0,29.4,30.18,WSW,255,11.0,11.0,90,0.00,,,0.00,Wunderground v.1.15,2013-01-06 01:26:00,
2013-01-05 20:31:00,32.1,29.2,30.18,West,281,10.0,10.0,89,0.00,,,0.00,Wunderground v.1.15,2013-01-06 01:31:00,
2013-01-05 20:36:00,32.2,29.0,30.18,West,270,11.0,11.0,88,0.00,,,0.00,Wunderground v.1.15,2013-01-06 01:36:00,
2013-01-05 20:46:00,32.3,29.1,30.18,West,281,10.0,13.0,88,0.00,,,0.00,Wunderground v.1.15,2013-01-06 01:46:00,
2013-01-05 20:55:00,32.3,28.9,30.17,WNW,290,10.0,10.0,87,0.00,,,0.00,Wunderground v.1.15,2013-01-06 01:55:00,
2013-01-05 21:00:00,32.2,28.8,30.17,West,278,9.0,9.0,87,0.00,,,0.00,Wunderground v.1.15,2013-01-06 02:00:00,
2013-01-05 21:05:00,32.2,28.8,30.17,West,274,9.0,10.0,87,0.00,,,0.00,Wunderground v.1.15,2013-01-06 02:05:00,
2013-01-05 21:10:00,32.2,28.8,30.17,WNW,282,10.0,10.0,87,0.00,,,0.00,Wunderground v.1.15,2013-01-06 02:10:00,
2013-01-05 21:21:00,32.2,28.8,30.17,NW,304,10.0,16.0,87,0.00,,,0.00,Wunderground v.1.15,2013-01-06 02:21:00,
2013-01-05 21:26:00,32.2,28.8,30.17,WNW,297,11.0,16.0,87,0.00,,,0.00,Wunderground v.1.15,2013-01-06 02:26:00,
2013-01-05 21:31:00,32.2,28.5,30.17,West,278,11.0,11.0,86,0.00,,,0.00,Wunderground v.1.15,2013-01-06 02:31:00,
2013-01-05 21:36:00,32.1,28.7,30.17,West,276,10.0,16.0,87,0.00,,,0.00,Wunderground v.1.15,2013-01-06 02:36:00,
2013-01-05 21:41:00,32.1,28.7,30.17,WNW,295,10.0,10.0,87,0.00,,,0.00,Wunderground v.1.15,2013-01-06 02:41:00,
2013-01-05 21:51:00,32.2,28.5,30.17,WNW,298,10.0,16.0,86,0.00,,,0.00,Wunderground v.1.15,2013-01-06 02:51:00,
2013-01-05 22:01:00,32.4,28.7,30.16,West,277,11.0,11.0,86,0.00,,,0.00,Wunderground v.1.15,2013-01-06 03:01:00,
2013-01-05 22:10:00,32.5,28.8,30.16,West,278,11.0,11.0,86,0.00,,,0.00,Wunderground v.1.15,2013-01-06 03:10:00,
2013-01-05 22:16:00,32.6,28.9,30.16,WNW,285,11.0,11.0,86,0.00,,,0.00,Wunderground v.1.15,2013-01-06 03:16:00,
2013-01-05 22:21:00,32.7,29.0,30.16,WNW,290,11.0,11.0,86,0.00,,,0.00,Wunderground v.1.15,2013-01-06 03:21:00,
2013-01-05 22:31:00,32.9,29.2,30.15,West,276,11.0,15.0,86,0.00,,,0.00,Wunderground v.1.15,2013-01-06 03:31:00,
2013-01-05 22:36:00,32.9,29.2,30.15,WNW,299,11.0,15.0,86,0.00,,,0.00,Wunderground v.1.15,2013-01-06 03:36:00,
2013-01-05 22:41:00,33.0,29.0,30.15,WNW,285,12.0,12.0,85,0.00,,,0.00,Wunderground v.1.15,2013-01-06 03:41:00,
2013-01-05 22:50:00,33.0,29.0,30.15,WNW,288,11.0,11.0,85,0.00,,,0.00,Wunderground v.1.15,2013-01-06 03:50:00,
2013-01-05 22:55:00,33.0,29.0,30.15,West,278,12.0,12.0,85,0.00,,,0.00,Wunderground v.1.15,2013-01-06 03:55:00,
2013-01-05 23:05:00,33.0,29.0,30.15,WSW,256,12.0,21.0,85,0.00,,,0.00,Wunderground v.1.15,2013-01-06 04:05:00,
2013-01-05 23:10:00,33.1,28.8,30.15,WNW,301,12.0,12.0,84,0.00,,,0.00,Wunderground v.1.15,2013-01-06 04:10:00,
2013-01-05 23:15:00,33.1,28.8,30.14,NW,311,12.0,16.0,84,0.00,,,0.00,Wunderground v.1.15,2013-01-06 04:15:00,
2013-01-05 23:21:00,33.1,28.8,30.14,WNW,293,13.0,21.0,84,0.00,,,0.00,Wunderground v.1.15,2013-01-06 04:21:00,
2013-01-05 23:26:00,33.1,28.8,30.14,WNW,300,12.0,21.0,84,0.00,,,0.00,Wunderground v.1.15,2013-01-06 04:26:00,
2013-01-05 23:36:00,33.1,29.1,30.14,NW,316,12.0,21.0,85,0.00,,,0.00,Wunderground v.1.15,2013-01-06 04:36:00,
2013-01-05 23:41:00,33.2,29.2,30.13,WNW,296,13.0,13.0,85,0.00,,,0.00,Wunderground v.1.15,2013-01-06 04:41:00,
2013-01-05 23:46:00,33.1,29.1,30.13,WNW,302,12.0,21.0,85,0.00,,,0.00,Wunderground v.1.15,2013-01-06 04:46:00,
2013-01-05 23:55:00,33.0,29.3,30.13,WNW,287,11.0,21.0,86,0.00,,,0.00,Wunderground v.1.15,2013-01-06 04:55:00,